Time;durP1;ratioP1;P1;durP2;ratioP2;P2;SDS_P1;SDS_P2;PMS_P1;PMS_P2;Temp;Humidity;BMP_temperature;BMP_pressure;BME280_temperature;BME280_humidity;BME280_pressure;Samples;Min_cycle;Max_cycle;Signal;HPM_P1;HPM_P2
2021/11/07 00:01:46;;;;;;;418.80;150.48;;;;;;;;;;5016428;28;20251;-89
2021/11/07 00:04:26;;;;;;;122.80;112.83;;;;;;;;;;5016391;28;20201;-89
2021/11/07 00:06:57;;;;;;;429.67;148.18;;;;;;;;;;5016383;28;20508;-89
2021/11/07 00:09:28;;;;;;;440.10;150.80;;;;;;;;;;5016078;28;20209;-89
2021/11/07 00:11:58;;;;;;;434.92;156.68;;;;;;;;;;5016081;28;20572;-89
2021/11/07 00:14:28;;;;;;;435.15;153.43;;;;;;;;;;5015981;28;20651;-89
2021/11/07 00:16:56;;;;;;;371.25;158.40;;;;;;;;;;5015791;28;20224;-90
2021/11/07 00:19:30;;;;;;;443.23;165.43;;;;;;;;;;5015927;28;20299;-90
2021/11/07 00:22:08;;;;;;;432.40;157.68;;;;;;;;;;5015863;28;20248;-89
2021/11/07 00:24:42;;;;;;;440.55;161.10;;;;;;;;;;5015755;28;20194;-88
2021/11/07 00:27:20;;;;;;;438.63;154.70;;;;;;;;;;5015995;28;20277;-89
2021/11/07 00:29:54;;;;;;;431.73;156.43;;;;;;;;;;5014810;28;20204;-90
2021/11/07 00:32:26;;;;;;;435.67;154.45;;;;;;;;;;5015754;28;20268;-89
2021/11/07 00:37:44;;;;;;;420.40;143.82;;;;;;;;;;4998743;28;20211;-89
2021/11/07 00:40:20;;;;;;;421.67;141.45;;;;;;;;;;5015636;28;20208;-89
2021/11/07 00:42:53;;;;;;;330.17;144.13;;;;;;;;;;5015473;28;20215;-89
2021/11/07 00:45:33;;;;;;;276.30;140.32;;;;;;;;;;5015696;28;20199;-89
2021/11/07 00:48:14;;;;;;;203.00;145.63;;;;;;;;;;5015148;28;20197;-89
2021/11/07 00:50:49;;;;;;;165.30;136.23;;;;;;;;;;4997881;28;20465;-89
2021/11/07 00:56:08;;;;;;;250.83;152.93;;;;;;;;;;5015198;28;20448;-89
2021/11/07 00:58:39;;;;;;;256.33;148.50;;;;;;;;;;5015410;28;20463;-90
2021/11/07 01:01:11;;;;;;;266.07;148.20;;;;;;;;;;5015056;28;20562;-89
2021/11/07 01:03:38;;;;;;;239.83;141.23;;;;;;;;;;5014982;28;20463;-89
2021/11/07 01:06:06;;;;;;;202.20;140.67;;;;;;;;;;4997961;28;20971;-89
2021/11/07 01:08:34;;;;;;;190.10;131.73;;;;;;;;;;5015257;28;20580;-89
2021/11/07 01:11:01;;;;;;;129.80;118.13;;;;;;;;;;5014887;28;20565;-89
2021/11/07 01:13:28;;;;;;;167.50;140.17;;;;;;;;;;5015302;28;20441;-89
2021/11/07 01:15:56;;;;;;;192.73;139.67;;;;;;;;;;5014949;28;20449;-88
2021/11/07 01:18:25;;;;;;;132.30;120.63;;;;;;;;;;4997520;28;20444;-89
2021/11/07 01:20:53;;;;;;;206.20;146.48;;;;;;;;;;5014771;28;20483;-88
2021/11/07 01:23:25;;;;;;;250.73;149.67;;;;;;;;;;5014728;28;20205;-89
2021/11/07 01:25:54;;;;;;;198.53;141.10;;;;;;;;;;5014477;28;20456;-88
2021/11/07 01:28:23;;;;;;;147.80;134.53;;;;;;;;;;5014556;28;20901;-89
2021/11/07 01:30:53;;;;;;;172.90;134.60;;;;;;;;;;5014469;28;20455;-89
2021/11/07 01:33:23;;;;;;;139.90;127.03;;;;;;;;;;5014764;28;20514;-88
2021/11/07 01:36:00;;;;;;;128.33;116.00;;;;;;;;;;5014612;28;20439;-88
2021/11/07 01:38:29;;;;;;;118.77;109.20;;;;;;;;;;5014707;28;20853;-88
2021/11/07 01:41:02;;;;;;;125.13;109.47;;;;;;;;;;5014546;28;20440;-89
2021/11/07 01:43:29;;;;;;;132.53;120.13;;;;;;;;;;4997093;28;20980;-88
2021/11/07 01:46:04;;;;;;;124.80;113.73;;;;;;;;;;5014581;28;20432;-89
2021/11/07 01:48:39;;;;;;;46.63;44.00;;;;;;;;;;5014553;28;20440;-87
2021/11/07 01:51:07;;;;;;;113.40;102.97;;;;;;;;;;5014286;28;20476;-88
2021/11/07 01:53:37;;;;;;;120.47;111.17;;;;;;;;;;5014254;28;20470;-88
2021/11/07 01:56:06;;;;;;;116.67;106.03;;;;;;;;;;5014391;28;20494;-89
2021/11/07 01:58:34;;;;;;;152.90;133.47;;;;;;;;;;5014607;28;20458;-88
2021/11/07 02:01:02;;;;;;;128.00;116.53;;;;;;;;;;5014314;28;20476;-88
2021/11/07 02:03:29;;;;;;;127.07;114.37;;;;;;;;;;5014095;28;20876;-88
2021/11/07 02:05:57;;;;;;;89.17;83.57;;;;;;;;;;5014554;28;20451;-88
2021/11/07 02:08:25;;;;;;;112.90;101.77;;;;;;;;;;5014391;28;20450;-88
2021/11/07 02:10:54;;;;;;;107.13;97.90;;;;;;;;;;4996825;28;20452;-88
2021/11/07 02:13:22;;;;;;;169.13;124.13;;;;;;;;;;5014422;28;20447;-88
2021/11/07 02:15:49;;;;;;;98.40;91.00;;;;;;;;;;5014002;28;20479;-86
2021/11/07 02:18:17;;;;;;;121.33;108.60;;;;;;;;;;5013712;28;20427;-89
2021/11/07 02:20:46;;;;;;;120.80;110.53;;;;;;;;;;5013773;28;20492;-87
2021/11/07 02:23:16;;;;;;;126.70;114.90;;;;;;;;;;4996245;28;20467;-88
2021/11/07 02:25:45;;;;;;;137.63;118.10;;;;;;;;;;5013981;28;20933;-89
2021/11/07 02:28:12;;;;;;;142.13;126.77;;;;;;;;;;5014272;28;20506;-88
2021/11/07 02:30:41;;;;;;;111.53;102.40;;;;;;;;;;5013937;28;20518;-88
2021/11/07 02:33:08;;;;;;;119.73;106.63;;;;;;;;;;5014103;28;20466;-88
2021/11/07 02:35:35;;;;;;;127.57;107.65;;;;;;;;;;4996815;28;20454;-88
2021/11/07 02:38:04;;;;;;;113.77;104.00;;;;;;;;;;5014283;28;20199;-88
2021/11/07 02:40:32;;;;;;;35.47;33.57;;;;;;;;;;5014071;28;20428;-89
2021/11/07 02:42:59;;;;;;;64.13;59.87;;;;;;;;;;5014270;28;20446;-89
2021/11/07 02:45:29;;;;;;;167.48;124.75;;;;;;;;;;5014065;28;20444;-88
2021/11/07 02:47:57;;;;;;;186.03;124.60;;;;;;;;;;5013754;28;20197;-88
2021/11/07 02:50:24;;;;;;;138.97;117.70;;;;;;;;;;5014072;28;20462;-88
2021/11/07 02:52:52;;;;;;;418.67;138.85;;;;;;;;;;5014631;28;20502;-88
2021/11/07 02:55:22;;;;;;;208.00;125.68;;;;;;;;;;5017777;28;20194;-89
2021/11/07 02:57:50;;;;;;;154.95;113.40;;;;;;;;;;5017891;28;20273;-88
2021/11/07 03:00:19;;;;;;;138.00;115.83;;;;;;;;;;5017699;28;20232;-89
2021/11/07 03:02:47;;;;;;;146.53;127.33;;;;;;;;;;5017271;28;20965;-89
2021/11/07 03:05:14;;;;;;;123.20;110.63;;;;;;;;;;5017901;28;20435;-89
2021/11/07 03:07:42;;;;;;;131.63;117.13;;;;;;;;;;5017589;28;20447;-88
2021/11/07 03:10:10;;;;;;;70.67;66.07;;;;;;;;;;5000115;28;20460;-88
2021/11/07 03:12:39;;;;;;;176.37;125.67;;;;;;;;;;5017382;28;20487;-88
2021/11/07 03:15:08;;;;;;;96.90;90.10;;;;;;;;;;5017745;28;20443;-88
2021/11/07 03:17:36;;;;;;;307.02;140.57;;;;;;;;;;5016944;28;20547;-87
2021/11/07 03:20:03;;;;;;;62.17;58.63;;;;;;;;;;5017008;28;20201;-89
2021/11/07 03:22:30;;;;;;;147.57;122.55;;;;;;;;;;5017125;28;20417;-87
2021/11/07 03:24:59;;;;;;;379.85;138.45;;;;;;;;;;5017258;28;20196;-88
2021/11/07 03:27:27;;;;;;;252.20;139.27;;;;;;;;;;5017415;28;20200;-88
2021/11/07 03:29:59;;;;;;;223.77;136.82;;;;;;;;;;5016863;28;20451;-88
2021/11/07 03:32:29;;;;;;;213.13;135.13;;;;;;;;;;5016948;28;20267;-88
2021/11/07 03:35:00;;;;;;;166.13;128.07;;;;;;;;;;5016697;28;20992;-89
2021/11/07 03:37:30;;;;;;;142.77;111.03;;;;;;;;;;5017061;28;20503;-89
2021/11/07 03:39:58;;;;;;;239.63;140.60;;;;;;;;;;5017011;28;20447;-88
2021/11/07 03:42:27;;;;;;;133.43;118.07;;;;;;;;;;5017009;28;20194;-89
2021/11/07 03:44:55;;;;;;;114.33;105.23;;;;;;;;;;5016603;28;20459;-89
2021/11/07 03:47:24;;;;;;;54.00;51.10;;;;;;;;;;5016561;28;20447;-90
2021/11/07 03:49:52;;;;;;;58.17;55.03;;;;;;;;;;5016641;28;20456;-89
2021/11/07 03:52:20;;;;;;;52.70;49.57;;;;;;;;;;5016677;28;20892;-90
2021/11/07 03:54:47;;;;;;;94.70;88.73;;;;;;;;;;5016682;28;20437;-90
2021/11/07 03:57:15;;;;;;;89.75;83.80;;;;;;;;;;5016682;28;20479;-90
2021/11/07 03:59:43;;;;;;;47.73;45.13;;;;;;;;;;4999426;28;20223;-89
2021/11/07 04:02:10;;;;;;;29.50;27.80;;;;;;;;;;5016743;28;20490;-90
2021/11/07 04:04:40;;;;;;;43.40;40.93;;;;;;;;;;5016205;28;20470;-90
2021/11/07 04:07:08;;;;;;;59.27;55.70;;;;;;;;;;5016285;28;20454;-89
2021/11/07 04:09:35;;;;;;;83.23;77.63;;;;;;;;;;4999426;28;20456;-90
2021/11/07 04:12:02;;;;;;;28.90;27.00;;;;;;;;;;5016528;28;20480;-89
2021/11/07 04:14:33;;;;;;;36.97;35.07;;;;;;;;;;5016110;28;20426;-89
2021/11/07 04:17:01;;;;;;;229.13;143.45;;;;;;;;;;5016283;28;20452;-90
2021/11/07 04:19:28;;;;;;;131.90;109.10;;;;;;;;;;5016161;28;20559;-90
2021/11/07 04:22:02;;;;;;;210.38;143.23;;;;;;;;;;4998352;28;20879;-89
2021/11/07 04:24:29;;;;;;;120.63;109.10;;;;;;;;;;5015938;28;20189;-89
2021/11/07 04:26:57;;;;;;;163.13;118.90;;;;;;;;;;5015813;28;20452;-90
2021/11/07 04:29:25;;;;;;;70.67;65.37;;;;;;;;;;5016062;28;20929;-89
2021/11/07 04:31:52;;;;;;;236.13;148.23;;;;;;;;;;5015998;28;20479;-89
2021/11/07 04:34:20;;;;;;;183.67;148.23;;;;;;;;;;5015975;28;20447;-89
2021/11/07 04:36:47;;;;;;;168.15;129.50;;;;;;;;;;5015665;28;20942;-87
2021/11/07 04:39:16;;;;;;;213.27;126.55;;;;;;;;;;5015873;28;20193;-89
2021/11/07 04:41:45;;;;;;;208.32;124.70;;;;;;;;;;5015888;28;20212;-90
2021/11/07 04:44:12;;;;;;;157.37;141.67;;;;;;;;;;5015479;28;20695;-89
2021/11/07 04:46:40;;;;;;;297.83;151.90;;;;;;;;;;5015582;28;20445;-90
2021/11/07 04:49:08;;;;;;;70.87;66.87;;;;;;;;;;5015361;28;20452;-89
2021/11/07 04:51:35;;;;;;;71.10;66.80;;;;;;;;;;5015587;28;20441;-90
2021/11/07 04:54:02;;;;;;;67.70;63.43;;;;;;;;;;5015460;28;20458;-90
2021/11/07 04:56:31;;;;;;;195.60;138.20;;;;;;;;;;5015444;28;20440;-89
2021/11/07 04:58:59;;;;;;;226.25;133.75;;;;;;;;;;5015420;28;20200;-87
2021/11/07 05:01:26;;;;;;;141.17;116.20;;;;;;;;;;4998421;28;20201;-89
2021/11/07 05:03:54;;;;;;;151.68;135.85;;;;;;;;;;5015645;28;20455;-89
2021/11/07 05:06:22;;;;;;;286.43;139.93;;;;;;;;;;5015344;28;20193;-89
2021/11/07 05:08:49;;;;;;;307.63;145.65;;;;;;;;;;5015994;28;20456;-89
2021/11/07 05:11:16;;;;;;;35.00;32.83;;;;;;;;;;5015339;28;20197;-89
2021/11/07 05:13:45;;;;;;;100.47;92.97;;;;;;;;;;5014811;28;20511;-89
2021/11/07 05:16:13;;;;;;;40.63;38.03;;;;;;;;;;5014454;28;20474;-89
2021/11/07 05:18:40;;;;;;;102.57;95.30;;;;;;;;;;5015464;28;20954;-89
2021/11/07 05:21:08;;;;;;;60.93;57.90;;;;;;;;;;5015023;28;20526;-87
2021/11/07 05:23:35;;;;;;;116.83;106.27;;;;;;;;;;5015126;28;20419;-89
2021/11/07 05:26:02;;;;;;;376.23;247.93;;;;;;;;;;5015092;28;20812;-89
2021/11/07 05:28:30;;;;;;;29.93;27.63;;;;;;;;;;5015408;28;20204;-87
2021/11/07 05:30:59;;;;;;;28.83;26.83;;;;;;;;;;5015028;28;20418;-89
2021/11/07 05:33:26;;;;;;;146.77;133.38;;;;;;;;;;5014682;28;20493;-88
2021/11/07 05:35:54;;;;;;;25.17;23.43;;;;;;;;;;5014592;28;20197;-89
2021/11/07 05:38:21;;;;;;;24.67;23.10;;;;;;;;;;4997367;28;20427;-89
2021/11/07 05:40:49;;;;;;;28.47;26.40;;;;;;;;;;5014778;28;20423;-89
2021/11/07 05:43:16;;;;;;;28.10;25.90;;;;;;;;;;4997498;28;20444;-88
2021/11/07 05:45:44;;;;;;;27.13;25.27;;;;;;;;;;4997118;28;20486;-88
2021/11/07 05:48:13;;;;;;;26.13;23.80;;;;;;;;;;5015072;28;20444;-89
2021/11/07 05:50:41;;;;;;;27.50;25.27;;;;;;;;;;5014712;28;20915;-88
2021/11/07 05:53:08;;;;;;;223.37;155.63;;;;;;;;;;5014569;28;20550;-88
2021/11/07 05:55:36;;;;;;;36.57;33.57;;;;;;;;;;5014697;28;20440;-88
2021/11/07 05:58:03;;;;;;;35.30;32.43;;;;;;;;;;5014551;28;20460;-88
2021/11/07 06:00:31;;;;;;;32.57;29.97;;;;;;;;;;5014644;28;20819;-88
2021/11/07 06:03:00;;;;;;;33.27;30.10;;;;;;;;;;5014344;28;20436;-88
2021/11/07 06:05:29;;;;;;;36.93;33.80;;;;;;;;;;5014533;28;20478;-88
2021/11/07 06:07:57;;;;;;;28.57;26.47;;;;;;;;;;4996650;28;20975;-88
2021/11/07 06:10:24;;;;;;;259.57;158.57;;;;;;;;;;5014568;28;20410;-88
2021/11/07 06:12:53;;;;;;;128.87;116.87;;;;;;;;;;5014181;28;20491;-88
2021/11/07 06:15:20;;;;;;;31.50;29.10;;;;;;;;;;5014202;28;20408;-89
2021/11/07 06:17:48;;;;;;;35.40;32.60;;;;;;;;;;5014328;28;20473;-88
2021/11/07 06:20:15;;;;;;;28.77;26.57;;;;;;;;;;5013992;28;20438;-89
2021/11/07 06:22:44;;;;;;;28.80;26.37;;;;;;;;;;4996944;28;20485;-88
2021/11/07 06:25:12;;;;;;;31.73;29.33;;;;;;;;;;5013913;28;20418;-88
2021/11/07 06:27:39;;;;;;;35.43;32.80;;;;;;;;;;5015235;28;20798;-89
2021/11/07 06:30:08;;;;;;;33.67;31.13;;;;;;;;;;5000580;28;20934;-89
2021/11/07 06:32:36;;;;;;;38.53;35.37;;;;;;;;;;5018112;28;20418;-88
2021/11/07 06:35:03;;;;;;;43.77;40.37;;;;;;;;;;5000828;28;20466;-88
2021/11/07 06:37:31;;;;;;;53.27;49.97;;;;;;;;;;5018079;28;20456;-88
2021/11/07 06:40:01;;;;;;;35.27;32.87;;;;;;;;;;5018124;28;20444;-89
2021/11/07 06:42:28;;;;;;;35.93;33.17;;;;;;;;;;5018000;28;20517;-89
2021/11/07 06:44:56;;;;;;;35.47;32.90;;;;;;;;;;5018430;28;20422;-88
2021/11/07 06:47:24;;;;;;;78.80;73.90;;;;;;;;;;5000249;28;20422;-88
2021/11/07 06:49:53;;;;;;;43.80;41.23;;;;;;;;;;5017643;28;20479;-88
2021/11/07 06:52:20;;;;;;;144.37;132.17;;;;;;;;;;5017593;28;20521;-89
2021/11/07 06:54:48;;;;;;;130.83;121.63;;;;;;;;;;5017766;28;20498;-89
2021/11/07 06:57:17;;;;;;;125.63;116.40;;;;;;;;;;5017877;28;20769;-89
2021/11/07 06:59:46;;;;;;;118.90;110.80;;;;;;;;;;5017745;28;20446;-88
2021/11/07 07:02:13;;;;;;;85.57;80.27;;;;;;;;;;5017512;28;20427;-89
2021/11/07 07:04:41;;;;;;;47.80;44.83;;;;;;;;;;5018063;28;20407;-89
2021/11/07 07:07:08;;;;;;;55.30;52.43;;;;;;;;;;5017649;28;20795;-88
2021/11/07 07:09:43;;;;;;;95.10;88.90;;;;;;;;;;5017702;28;20411;-89
2021/11/07 07:12:15;;;;;;;55.93;53.03;;;;;;;;;;5017670;28;20436;-88
2021/11/07 07:14:50;;;;;;;148.90;125.03;;;;;;;;;;5017290;28;20858;-87
2021/11/07 07:17:24;;;;;;;186.67;140.53;;;;;;;;;;5017567;28;20466;-84
2021/11/07 07:19:59;;;;;;;213.43;146.00;;;;;;;;;;5016951;28;20501;-87
2021/11/07 07:28:14;;;;;;;213.10;147.45;;;;;;;;;;5013547;28;20447;-93
2021/11/07 07:30:51;;;;;;;245.63;145.23;;;;;;;;;;5016815;28;20201;-93
2021/11/07 07:36:00;;;;;;;150.83;132.33;;;;;;;;;;5014352;28;20502;-95
2021/11/07 07:38:27;;;;;;;241.80;148.03;;;;;;;;;;5016865;28;20447;-95
2021/11/07 07:40:55;;;;;;;193.60;137.27;;;;;;;;;;5017608;28;20455;-92
2021/11/07 07:43:23;;;;;;;237.38;163.45;;;;;;;;;;5016907;28;20962;-92
2021/11/07 07:45:54;;;;;;;297.85;159.25;;;;;;;;;;5003942;28;20722;-87
2021/11/07 07:48:22;;;;;;;341.30;157.50;;;;;;;;;;5055630;28;20238;-86
2021/11/07 07:50:49;;;;;;;375.02;153.65;;;;;;;;;;5056216;28;20236;-86
2021/11/07 07:53:17;;;;;;;342.17;154.80;;;;;;;;;;5056075;28;20218;-87
2021/11/07 07:55:45;;;;;;;372.33;160.98;;;;;;;;;;5038620;28;20231;-96
2021/11/07 07:58:12;;;;;;;425.05;154.75;;;;;;;;;;5038219;28;20206;-86
2021/11/07 08:00:40;;;;;;;400.52;153.77;;;;;;;;;;5056013;28;20238;-86
2021/11/07 08:03:09;;;;;;;232.52;145.00;;;;;;;;;;5057754;28;20192;-93
2021/11/07 08:05:36;;;;;;;192.73;138.87;;;;;;;;;;5060046;28;20691;-85
2021/11/07 08:08:03;;;;;;;173.90;142.27;;;;;;;;;;5056215;28;20433;-88
2021/11/07 08:10:31;;;;;;;354.27;146.95;;;;;;;;;;5056162;28;20445;-84
2021/11/07 08:12:58;;;;;;;423.63;164.48;;;;;;;;;;5055506;28;20263;-86
2021/11/07 08:15:26;;;;;;;422.83;148.50;;;;;;;;;;5055464;28;20245;-85
2021/11/07 08:17:53;;;;;;;396.17;142.27;;;;;;;;;;5055262;28;20195;-87
2021/11/07 08:20:22;;;;;;;447.63;162.93;;;;;;;;;;5055434;28;20199;-85
2021/11/07 08:22:50;;;;;;;433.23;156.73;;;;;;;;;;5056172;28;20266;-96
2021/11/07 08:25:21;;;;;;;401.13;158.77;;;;;;;;;;5038431;28;20588;-84
2021/11/07 08:27:49;;;;;;;433.98;154.52;;;;;;;;;;5042778;28;20212;-93
2021/11/07 08:30:20;;;;;;;383.42;157.77;;;;;;;;;;5002743;28;20200;-86
2021/11/07 08:32:47;;;;;;;430.83;152.98;;;;;;;;;;5036417;28;20216;-88
2021/11/07 08:35:14;;;;;;;432.80;157.27;;;;;;;;;;5036279;28;20213;-87
2021/11/07 08:37:49;;;;;;;369.40;168.33;;;;;;;;;;5036327;28;20185;-95
2021/11/07 08:40:21;;;;;;;405.30;156.07;;;;;;;;;;5037641;28;20816;-90
2021/11/07 08:42:51;;;;;;;214.00;141.27;;;;;;;;;;5035760;28;20204;-87
2021/11/07 09:04:52;;;;;;;327.92;154.25;;;;;;;;;;4992310;28;20455;-84
2021/11/07 09:07:21;;;;;;;311.07;153.53;;;;;;;;;;4993230;28;20260;-85
2021/11/07 09:09:57;;;;;;;337.57;159.40;;;;;;;;;;4993123;28;20437;-86
2021/11/07 09:12:25;;;;;;;251.60;158.13;;;;;;;;;;4992922;28;20445;-85
2021/11/07 09:14:53;;;;;;;134.37;122.07;;;;;;;;;;4993012;28;21036;-84
2021/11/07 09:17:21;;;;;;;164.13;133.33;;;;;;;;;;4992757;28;20446;-85
2021/11/07 09:19:50;;;;;;;248.20;153.77;;;;;;;;;;4993032;28;20454;-85
2021/11/07 09:22:24;;;;;;;299.92;153.60;;;;;;;;;;4992627;28;20512;-84
2021/11/07 09:24:55;;;;;;;339.77;162.37;;;;;;;;;;4992766;28;20226;-84
2021/11/07 09:27:26;;;;;;;297.85;161.35;;;;;;;;;;5011871;28;20949;-85
2021/11/07 09:30:02;;;;;;;22.30;20.40;;;;;;;;;;5034341;28;20196;-85
2021/11/07 09:32:38;;;;;;;22.30;20.00;;;;;;;;;;5033915;28;20965;-84
2021/11/07 09:35:21;;;;;;;21.23;19.73;;;;;;;;;;5033816;28;20495;-85
2021/11/07 09:37:51;;;;;;;29.53;27.30;;;;;;;;;;5034090;28;20432;-84
2021/11/07 09:40:24;;;;;;;39.37;34.83;;;;;;;;;;5034005;28;20435;-85
2021/11/07 09:43:10;;;;;;;341.33;173.53;;;;;;;;;;5034012;28;20443;-85
2021/11/07 09:45:48;;;;;;;305.83;147.88;;;;;;;;;;5033725;28;20450;-85
2021/11/07 09:48:19;;;;;;;193.03;140.90;;;;;;;;;;5033634;28;20203;-85
2021/11/07 09:50:47;;;;;;;240.17;141.70;;;;;;;;;;5016807;28;20491;-84
2021/11/07 09:53:15;;;;;;;337.50;166.97;;;;;;;;;;5033815;28;20440;-85
2021/11/07 09:55:45;;;;;;;327.90;163.88;;;;;;;;;;5033678;28;20821;-85
2021/11/07 09:58:13;;;;;;;312.80;175.63;;;;;;;;;;5016338;28;20251;-84
2021/11/07 10:00:44;;;;;;;296.33;155.60;;;;;;;;;;5016155;28;20573;-85
2021/11/07 10:03:13;;;;;;;120.47;110.77;;;;;;;;;;5033268;28;20937;-85
2021/11/07 10:05:44;;;;;;;126.03;115.83;;;;;;;;;;5016058;28;20440;-84
2021/11/07 10:08:13;;;;;;;143.57;131.63;;;;;;;;;;5033636;28;20443;-85
2021/11/07 10:10:45;;;;;;;154.23;141.27;;;;;;;;;;5033582;28;20447;-87
2021/11/07 10:13:20;;;;;;;148.70;135.80;;;;;;;;;;5033579;28;20929;-89
2021/11/07 10:15:50;;;;;;;150.03;134.80;;;;;;;;;;5035256;28;20516;-89
2021/11/07 10:18:27;;;;;;;159.13;143.27;;;;;;;;;;5033953;28;20447;-88
2021/11/07 10:20:58;;;;;;;162.93;141.37;;;;;;;;;;5034579;28;20513;-92
2021/11/07 10:23:30;;;;;;;160.43;143.30;;;;;;;;;;5034261;28;20858;-95
2021/11/07 10:26:03;;;;;;;195.40;156.33;;;;;;;;;;5034670;28;20463;-89
2021/11/07 10:28:37;;;;;;;166.50;149.67;;;;;;;;;;5016671;28;20483;-88
2021/11/07 10:31:11;;;;;;;297.80;173.05;;;;;;;;;;5033744;28;20531;-91
2021/11/07 10:33:52;;;;;;;226.40;159.77;;;;;;;;;;5033758;28;20209;-89
2021/11/07 10:36:48;;;;;;;281.13;172.93;;;;;;;;;;5033718;28;20465;-91
2021/11/07 10:39:26;;;;;;;285.60;177.73;;;;;;;;;;5035384;28;20432;-90
2021/11/07 10:42:09;;;;;;;228.33;159.03;;;;;;;;;;5032314;28;20451;-90
2021/11/07 10:44:53;;;;;;;307.37;166.73;;;;;;;;;;5036178;28;20454;-90
2021/11/07 10:53:12;;;;;;;285.77;168.83;;;;;;;;;;5036297;28;20455;-90
2021/11/07 10:55:42;;;;;;;316.70;168.80;;;;;;;;;;5033441;28;21005;-90
2021/11/07 10:58:09;;;;;;;309.50;177.20;;;;;;;;;;5033917;28;20920;-90
2021/11/07 11:00:39;;;;;;;254.80;164.57;;;;;;;;;;5033673;28;20459;-88
2021/11/07 11:03:07;;;;;;;281.03;169.67;;;;;;;;;;5033642;28;20447;-89
2021/11/07 11:05:38;;;;;;;344.87;173.77;;;;;;;;;;5034265;28;20804;-89
2021/11/07 11:08:12;;;;;;;248.80;169.43;;;;;;;;;;5033722;28;20491;-89
2021/11/07 11:10:47;;;;;;;352.43;175.97;;;;;;;;;;5033329;28;20463;-88
2021/11/07 11:13:23;;;;;;;347.15;173.40;;;;;;;;;;5015939;28;20451;-86
2021/11/07 11:15:59;;;;;;;252.87;168.93;;;;;;;;;;5037325;28;20212;-88
2021/11/07 11:24:11;;;;;;;210.93;141.30;;;;;;;;;;4948732;29;20442;-88
2021/11/07 11:26:47;;;;;;;273.42;158.70;;;;;;;;;;4958596;29;20478;-91
2021/11/07 11:32:09;;;;;;;296.87;160.07;;;;;;;;;;4956694;29;20598;-88
2021/11/07 11:34:41;;;;;;;272.57;138.40;;;;;;;;;;4957315;29;20494;-88
2021/11/07 11:37:14;;;;;;;213.30;126.23;;;;;;;;;;4956813;29;20465;-88
2021/11/07 11:39:45;;;;;;;219.07;138.30;;;;;;;;;;4918295;29;20445;-88
2021/11/07 11:42:15;;;;;;;382.73;171.23;;;;;;;;;;4918458;29;20543;-87
2021/11/07 11:44:45;;;;;;;120.10;108.07;;;;;;;;;;4919316;29;20449;-86
2021/11/07 11:47:29;;;;;;;67.67;62.23;;;;;;;;;;4918806;29;20766;-87
2021/11/07 11:52:55;;;;;;;267.33;151.90;;;;;;;;;;4983140;28;20450;-91
2021/11/07 11:55:30;;;;;;;291.97;155.03;;;;;;;;;;5016379;28;20490;-94
2021/11/07 11:58:09;;;;;;;152.93;125.73;;;;;;;;;;5016668;28;20455;-94
2021/11/07 12:00:46;;;;;;;45.13;41.13;;;;;;;;;;5016582;28;20997;-95
2021/11/07 12:03:33;;;;;;;116.10;105.23;;;;;;;;;;5016802;28;20415;-92
2021/11/07 12:06:04;;;;;;;262.70;161.17;;;;;;;;;;5016885;28;20542;-93
2021/11/07 12:08:52;;;;;;;206.80;139.77;;;;;;;;;;5016687;28;20585;-93
2021/11/07 12:11:27;;;;;;;162.97;121.40;;;;;;;;;;5015489;28;20498;-93
2021/11/07 12:14:03;;;;;;;407.35;158.23;;;;;;;;;;5016546;28;20415;-93
2021/11/07 12:16:51;;;;;;;152.70;94.27;;;;;;;;;;5016338;28;20239;-93
2021/11/07 12:19:21;;;;;;;24.23;21.77;;;;;;;;;;5016349;28;20462;-93
2021/11/07 12:22:06;;;;;;;101.90;49.30;;;;;;;;;;5016361;28;20427;-93
2021/11/07 12:24:35;;;;;;;276.63;115.33;;;;;;;;;;5016446;28;20763;-90
2021/11/07 12:27:20;;;;;;;59.03;53.33;;;;;;;;;;5019550;28;20448;-89
2021/11/07 12:29:48;;;;;;;25.90;23.70;;;;;;;;;;5016562;28;20451;-85
2021/11/07 12:32:16;;;;;;;51.80;46.60;;;;;;;;;;5015521;28;20446;-87
2021/11/07 12:34:59;;;;;;;97.40;76.17;;;;;;;;;;5015624;28;20459;-91
2021/11/07 12:40:43;;;;;;;36.30;33.77;;;;;;;;;;5008324;28;20542;-89
2021/11/07 12:43:11;;;;;;;37.77;34.90;;;;;;;;;;5015579;28;20538;-89
2021/11/07 12:45:42;;;;;;;248.07;167.83;;;;;;;;;;5015705;28;20955;-88
2021/11/07 12:48:11;;;;;;;180.43;76.23;;;;;;;;;;5015502;28;20471;-90
2021/11/07 12:51:05;;;;;;;149.40;76.27;;;;;;;;;;5035611;28;20450;-92
2021/11/07 12:53:53;;;;;;;158.87;98.67;;;;;;;;;;5036442;28;20459;-96
2021/11/07 12:56:30;;;;;;;380.38;159.30;;;;;;;;;;5036288;28;20587;-93
2021/11/07 12:58:58;;;;;;;114.17;53.43;;;;;;;;;;5036100;28;20535;-90
2021/11/07 13:01:26;;;;;;;22.10;20.10;;;;;;;;;;5035116;28;20766;-88
2021/11/07 13:03:54;;;;;;;273.00;106.00;;;;;;;;;;5035801;28;20452;-89
2021/11/07 13:06:22;;;;;;;104.57;95.57;;;;;;;;;;5017197;28;20201;-87
2021/11/07 13:08:54;;;;;;;438.17;215.65;;;;;;;;;;5035347;28;20484;-86
2021/11/07 13:11:26;;;;;;;324.67;184.95;;;;;;;;;;5036827;28;20189;-96
2021/11/07 13:14:03;;;;;;;126.60;86.37;;;;;;;;;;5017688;28;20201;-89
2021/11/07 13:16:50;;;;;;;58.63;54.93;;;;;;;;;;5017637;28;20486;-91
2021/11/07 13:19:38;;;;;;;174.27;141.00;;;;;;;;;;5036027;28;20431;-94
2021/11/07 13:25:33;;;;;;;380.00;175.80;;;;;;;;;;5037288;28;20423;-90
2021/11/07 13:28:16;;;;;;;48.33;45.37;;;;;;;;;;5037810;28;20205;-95
2021/11/07 13:30:57;;;;;;;131.70;104.53;;;;;;;;;;5035932;28;20426;-90
2021/11/07 13:33:24;;;;;;;430.17;186.35;;;;;;;;;;5039802;28;20463;-96
2021/11/07 13:35:57;;;;;;;370.52;182.05;;;;;;;;;;5034793;28;20239;-85
2021/11/07 13:38:26;;;;;;;171.37;109.10;;;;;;;;;;5034165;28;20208;-83
2021/11/07 13:40:54;;;;;;;46.90;43.30;;;;;;;;;;5016448;28;20521;-85
2021/11/07 13:43:27;;;;;;;428.85;174.93;;;;;;;;;;5034031;28;20419;-85
2021/11/07 13:45:58;;;;;;;45.40;42.10;;;;;;;;;;5034092;28;20185;-87
2021/11/07 13:48:29;;;;;;;46.43;43.27;;;;;;;;;;5033897;28;20562;-85
2021/11/07 13:50:57;;;;;;;128.93;79.30;;;;;;;;;;5034204;28;20888;-86
2021/11/07 13:53:27;;;;;;;45.43;42.53;;;;;;;;;;5033772;28;20561;-87
2021/11/07 13:55:56;;;;;;;429.00;175.68;;;;;;;;;;5034209;28;20490;-86
2021/11/07 13:58:24;;;;;;;73.43;68.07;;;;;;;;;;5034203;28;20219;-88
2021/11/07 14:00:53;;;;;;;160.10;99.90;;;;;;;;;;5016812;28;20417;-87
2021/11/07 14:03:22;;;;;;;70.73;63.87;;;;;;;;;;5016436;28;20509;-87
2021/11/07 14:05:51;;;;;;;143.47;99.97;;;;;;;;;;5033959;28;20434;-88
2021/11/07 14:08:20;;;;;;;434.60;173.77;;;;;;;;;;5034079;28;20446;-87
2021/11/07 14:10:48;;;;;;;39.90;36.83;;;;;;;;;;5033914;28;20250;-88
2021/11/07 14:13:16;;;;;;;36.37;33.87;;;;;;;;;;5034005;28;20446;-88
2021/11/07 14:15:45;;;;;;;34.07;32.00;;;;;;;;;;5033830;28;20483;-89
2021/11/07 14:18:16;;;;;;;32.73;30.73;;;;;;;;;;5033852;28;20411;-88
2021/11/07 14:20:47;;;;;;;33.33;31.27;;;;;;;;;;5033988;28;20456;-88
2021/11/07 14:23:20;;;;;;;361.95;135.45;;;;;;;;;;5033972;28;20465;-88
2021/11/07 14:25:48;;;;;;;30.03;27.83;;;;;;;;;;5033687;28;20227;-88
2021/11/07 14:31:02;;;;;;;126.13;74.60;;;;;;;;;;5023546;28;21011;-86
2021/11/07 14:33:35;;;;;;;168.60;112.07;;;;;;;;;;5033907;28;20458;-87
2021/11/07 14:36:21;;;;;;;189.80;111.45;;;;;;;;;;5033621;28;20315;-87
2021/11/07 14:38:58;;;;;;;30.70;28.40;;;;;;;;;;5033522;28;20207;-87
2021/11/07 14:41:31;;;;;;;332.85;151.57;;;;;;;;;;5033898;28;20454;-87
2021/11/07 14:44:09;;;;;;;31.73;28.73;;;;;;;;;;5033686;28;20207;-88
2021/11/07 14:46:44;;;;;;;374.13;151.75;;;;;;;;;;5033893;28;20417;-88
2021/11/07 14:49:29;;;;;;;335.48;147.77;;;;;;;;;;5034871;28;20239;-88
2021/11/07 14:55:15;;;;;;;262.77;143.03;;;;;;;;;;5016903;28;20444;-86
2021/11/07 14:58:09;;;;;;;349.70;144.55;;;;;;;;;;5037745;28;20464;-88
2021/11/07 15:00:42;;;;;;;30.73;27.60;;;;;;;;;;5037645;28;20211;-89
2021/11/07 15:03:15;;;;;;;374.35;144.38;;;;;;;;;;5037447;28;20426;-87
2021/11/07 15:05:49;;;;;;;29.27;26.77;;;;;;;;;;5042711;28;20203;-94
2021/11/07 15:08:23;;;;;;;348.70;144.90;;;;;;;;;;5040323;28;20512;-95
2021/11/07 15:11:04;;;;;;;324.58;142.80;;;;;;;;;;5038622;28;20219;-90
2021/11/07 15:13:38;;;;;;;121.95;108.18;;;;;;;;;;5038668;28;20290;-87
2021/11/07 15:16:20;;;;;;;28.43;26.23;;;;;;;;;;5038027;28;20219;-90
2021/11/07 15:18:53;;;;;;;266.38;129.85;;;;;;;;;;5037436;28;20418;-90
2021/11/07 15:21:28;;;;;;;272.50;128.45;;;;;;;;;;5036939;28;20323;-89
2021/11/07 15:24:01;;;;;;;113.53;50.22;;;;;;;;;;5037470;28;20212;-90